createdAt,value
2019-04-01T00:01:12.044Z,102647.53
2019-04-01T00:03:40.466Z,102652.44
2019-04-01T00:06:08.909Z,102655.16
2019-04-01T00:08:37.341Z,102661.84
2019-04-01T00:11:05.765Z,102658.50
2019-04-01T00:13:34.207Z,102660.41
2019-04-01T00:16:02.632Z,102657.03
2019-04-01T00:18:31.099Z,102658.14
2019-04-01T00:20:59.515Z,102659.12
2019-04-01T00:23:27.944Z,102665.47
2019-04-01T00:25:56.399Z,102651.17
2019-04-01T00:28:24.869Z,102654.88
2019-04-01T00:30:53.299Z,102659.92
2019-04-01T00:33:21.715Z,102659.63
2019-04-01T00:35:50.146Z,102659.30
2019-04-01T00:38:18.573Z,102660.34
2019-04-01T00:40:46.994Z,102658.33
2019-04-01T00:43:19.781Z,102660.20
2019-04-01T00:45:55.785Z,102661.67
2019-04-01T00:48:24.211Z,102664.94
2019-04-01T00:50:52.707Z,102662.52
2019-04-01T00:53:21.133Z,102661.73
2019-04-01T00:55:49.567Z,102657.90
2019-04-01T00:58:17.999Z,102661.13
2019-04-01T01:00:46.423Z,102659.91
2019-04-01T01:03:14.847Z,102655.20
2019-04-01T01:05:43.272Z,102657.53
2019-04-01T01:08:11.701Z,102662.45
2019-04-01T01:10:40.150Z,102658.56
2019-04-01T01:13:08.599Z,102660.85
2019-04-01T01:15:37.025Z,102654.80
2019-04-01T01:18:05.457Z,102653.20
2019-04-01T01:20:33.941Z,102654.55
2019-04-01T01:23:02.370Z,102652.44
2019-04-01T01:25:30.777Z,102647.70
2019-04-01T01:27:59.282Z,102642.98
2019-04-01T01:30:27.722Z,102649.59
2019-04-01T01:32:56.250Z,102651.01
2019-04-01T01:35:24.686Z,102647.93
2019-04-01T01:37:53.144Z,102641.91
2019-04-01T01:40:21.529Z,102643.32
2019-04-01T01:42:49.967Z,102639.86
2019-04-01T01:45:18.388Z,102640.37
2019-04-01T01:47:46.858Z,102641.33
2019-04-01T01:50:15.339Z,102640.92
2019-04-01T01:52:43.758Z,102577.53
2019-04-01T01:55:12.259Z,102638.90
2019-04-01T01:57:40.691Z,102638.09
2019-04-01T02:00:10.251Z,102631.56
2019-04-01T02:02:38.706Z,102638.58
2019-04-01T02:05:07.195Z,102636.87
2019-04-01T02:07:35.632Z,102633.86
2019-04-01T02:10:05.314Z,102630.02
2019-04-01T02:12:33.748Z,102638.38
2019-04-01T02:15:02.166Z,102629.66
2019-04-01T02:17:30.596Z,102633.63
2019-04-01T02:19:59.016Z,102629.31
2019-04-01T02:22:27.471Z,102639.42
2019-04-01T02:24:55.886Z,102632.47
2019-04-01T02:27:24.310Z,102636.38
2019-04-01T02:29:52.739Z,102636.48
2019-04-01T02:32:21.187Z,102639.55
2019-04-01T02:34:49.719Z,102641.79
2019-04-01T02:37:18.163Z,102639.61
2019-04-01T02:39:46.557Z,102638.33
2019-04-01T02:42:15.008Z,102641.43
2019-04-01T02:44:43.439Z,102649.78
2019-04-01T02:47:11.857Z,102636.23
2019-04-01T02:49:40.287Z,102639.73
2019-04-01T02:52:08.714Z,102641.04
2019-04-01T02:54:37.145Z,102638.86
2019-04-01T02:57:05.571Z,102638.89
2019-04-01T02:59:34.015Z,102634.98
2019-04-01T03:02:02.426Z,102632.80
2019-04-01T03:04:30.848Z,102634.63
2019-04-01T03:06:59.493Z,102635.94
2019-04-01T03:09:27.916Z,102631.58
2019-04-01T03:11:56.319Z,102637.76
2019-04-01T03:14:24.796Z,102629.04
2019-04-01T03:16:53.262Z,102631.25
2019-04-01T03:19:21.688Z,102634.77
2019-04-01T03:21:50.111Z,102635.66
2019-04-01T03:24:18.537Z,102638.73
2019-04-01T03:26:46.997Z,102627.39
2019-04-01T03:29:15.428Z,102636.14
2019-04-01T03:31:43.855Z,102636.14
2019-04-01T03:34:12.319Z,102639.19
2019-04-01T03:36:40.752Z,102639.21
2019-04-01T03:39:09.211Z,102637.48
2019-04-01T03:41:37.634Z,102637.06
2019-04-01T03:44:06.080Z,102637.90
2019-04-01T03:46:34.538Z,102633.54
2019-04-01T03:49:02.972Z,102636.58
2019-04-01T03:51:31.404Z,102640.94
2019-04-01T03:53:59.837Z,102640.08
2019-04-01T03:56:29.803Z,102636.55
2019-04-01T03:58:58.268Z,102642.64
2019-04-01T04:01:30.278Z,102641.75
2019-04-01T04:03:56.834Z,102640.44
2019-04-01T04:06:25.636Z,102641.75
2019-04-01T04:08:54.175Z,102641.78
2019-04-01T04:11:22.607Z,102640.91
2019-04-01T04:13:51.025Z,102645.30
2019-04-01T04:16:19.482Z,102638.31
2019-04-01T04:18:47.907Z,102642.67
2019-04-01T04:21:16.373Z,102643.12
2019-04-01T04:23:44.761Z,102645.77
2019-04-01T04:26:13.249Z,102644.05
2019-04-01T04:28:41.677Z,102652.81
2019-04-01T04:31:10.133Z,102646.70
2019-04-01T04:33:38.552Z,102646.75
2019-04-01T04:36:06.976Z,102654.66
2019-04-01T04:38:35.398Z,102649.88
2019-04-01T04:41:03.814Z,102656.87
2019-04-01T04:43:32.245Z,102649.91
2019-04-01T04:46:00.701Z,102656.95
2019-04-01T04:48:29.305Z,102660.91
2019-04-01T04:50:57.733Z,102665.27
2019-04-01T04:53:26.162Z,102658.70
2019-04-01T04:55:54.671Z,102657.39
2019-04-01T04:58:23.099Z,102660.44
2019-04-01T05:00:51.599Z,102664.34
2019-04-01T05:03:20.380Z,102660.86
2019-04-01T05:05:48.814Z,102658.20
2019-04-01T05:08:17.246Z,102662.59
2019-04-01T05:10:45.658Z,102662.56
2019-04-01T05:13:14.109Z,102661.28
2019-04-01T05:15:42.543Z,102662.98
2019-04-01T05:18:10.962Z,102660.36
2019-04-01T05:20:40.516Z,102669.94
2019-04-01T05:23:10.095Z,102670.80
2019-04-01T05:25:38.570Z,102670.74
2019-04-01T05:28:08.501Z,102672.03
2019-04-01T05:30:37.499Z,102682.48
2019-04-01T05:33:05.940Z,102677.20
2019-04-01T05:35:37.399Z,102674.96
2019-04-01T05:38:06.828Z,102674.04
2019-04-01T05:40:36.084Z,102675.74
2019-04-01T05:43:04.847Z,102669.18
2019-04-01T05:45:33.349Z,102675.66
2019-04-01T05:48:01.789Z,102672.55
2019-04-01T05:50:30.204Z,102679.00
2019-04-01T05:52:58.721Z,102685.88
2019-04-01T05:55:27.132Z,102682.71
2019-04-01T05:57:55.571Z,102690.05
2019-04-01T06:00:25.669Z,102680.29
2019-04-01T06:02:54.102Z,102685.84
2019-04-01T06:05:22.565Z,102686.59
2019-04-01T06:07:51.000Z,102690.31
2019-04-01T06:10:19.455Z,102690.09
2019-04-01T06:12:48.266Z,102689.45
2019-04-01T06:15:16.764Z,102701.50
2019-04-01T06:17:45.195Z,102693.31
2019-04-01T06:20:13.691Z,102693.11
2019-04-01T06:22:42.128Z,102699.89
2019-04-01T06:25:10.657Z,102697.47
2019-04-01T06:27:40.043Z,102691.92
2019-04-01T06:30:09.444Z,102697.80
2019-04-01T06:32:37.932Z,102697.02
2019-04-01T06:35:06.726Z,102696.76
2019-04-01T06:37:35.148Z,102698.68
2019-04-01T06:40:05.303Z,102695.70
2019-04-01T06:42:33.729Z,102695.42
2019-04-01T06:45:02.143Z,102692.47
2019-04-01T06:47:30.858Z,102695.20
2019-04-01T06:49:59.301Z,102698.83
2019-04-01T06:52:27.781Z,102700.33
2019-04-01T06:54:56.364Z,102700.33
2019-04-01T06:57:25.119Z,102691.53
2019-04-01T06:59:53.551Z,102696.78
2019-04-01T07:02:21.983Z,102698.02
2019-04-01T07:04:50.502Z,102700.66
2019-04-01T07:07:19.673Z,102692.33
2019-04-01T07:09:50.607Z,102694.45
2019-04-01T07:12:18.276Z,102696.56
2019-04-01T07:14:46.739Z,102691.55
2019-04-01T07:17:15.157Z,102611.68
2019-04-01T07:19:43.576Z,102692.62
2019-04-01T07:22:12.367Z,102695.50
2019-04-01T07:24:40.772Z,102694.92
2019-04-01T07:27:09.197Z,102696.30
2019-04-01T07:29:37.690Z,102702.62
2019-04-01T07:32:06.114Z,102697.80
2019-04-01T07:34:34.629Z,102700.10
2019-04-01T07:37:03.042Z,102696.20
2019-04-01T07:39:31.468Z,102698.41
2019-04-01T07:42:01.201Z,102694.47
2019-04-01T07:44:29.687Z,102688.25
2019-04-01T07:46:58.182Z,102694.92
2019-04-01T07:49:26.694Z,102686.98
2019-04-01T07:51:55.194Z,102689.97
2019-04-01T07:54:23.686Z,102692.29
2019-04-01T07:56:52.260Z,102691.37
2019-04-01T07:59:21.315Z,102696.97
2019-04-01T08:01:52.649Z,102690.72
2019-04-01T08:04:20.021Z,102689.41
2019-04-01T08:06:48.588Z,102695.74
2019-04-01T08:09:17.033Z,102684.55
2019-04-01T08:11:45.518Z,102691.73
2019-04-01T08:14:13.940Z,102695.55
2019-04-01T08:16:42.382Z,102692.15
2019-04-01T08:19:10.800Z,102691.45
2019-04-01T08:21:39.225Z,102692.33
2019-04-01T08:24:07.648Z,102690.58
2019-04-01T08:26:36.061Z,102685.28
2019-04-01T08:29:04.754Z,102687.61
2019-04-01T08:31:33.179Z,102687.95
2019-04-01T08:34:01.737Z,102683.63
2019-04-01T08:36:30.637Z,102685.98
2019-04-01T08:38:59.079Z,102685.06
2019-04-01T08:41:27.514Z,102683.62
2019-04-01T08:43:55.932Z,102680.50
2019-04-01T08:46:24.360Z,102679.40
2019-04-01T08:48:52.777Z,102685.93
2019-04-01T08:51:21.197Z,102677.77
2019-04-01T08:53:50.377Z,102672.74
2019-04-01T08:56:18.796Z,102671.05
2019-04-01T08:58:47.292Z,102666.61
2019-04-01T09:01:15.891Z,102674.54
2019-04-01T09:03:44.392Z,102669.40
2019-04-01T09:06:13.133Z,102669.62
2019-04-01T09:08:44.124Z,102668.06
2019-04-01T09:11:12.635Z,102664.95
2019-04-01T09:13:42.135Z,102656.09
2019-04-01T09:16:11.125Z,102646.61
2019-04-01T09:18:39.626Z,102651.42
2019-04-01T09:21:08.070Z,102655.84
2019-04-01T09:23:36.531Z,102647.37
2019-04-01T09:26:04.955Z,102645.45
2019-04-01T09:28:33.414Z,102633.13
2019-04-01T09:31:01.825Z,102648.70
2019-04-01T09:33:30.254Z,102645.66
2019-04-01T09:35:58.680Z,102645.88
2019-04-01T09:38:27.220Z,102632.84
2019-04-01T09:40:55.637Z,102634.84
2019-04-01T09:43:24.091Z,102622.93
2019-04-01T09:45:52.553Z,102636.61
2019-04-01T09:48:23.676Z,102623.17
2019-04-01T09:50:51.153Z,102618.98
2019-04-01T09:53:19.643Z,102628.23
2019-04-01T09:55:48.100Z,102616.70
2019-04-01T09:58:16.530Z,102613.16
2019-04-01T10:00:46.600Z,102613.27
2019-04-01T10:03:15.052Z,102617.00
2019-04-01T10:05:43.487Z,102617.93
2019-04-01T10:08:11.903Z,102606.48
2019-04-01T10:10:40.337Z,102609.84
2019-04-01T10:13:08.759Z,102614.65
2019-04-01T10:15:37.208Z,102605.91
2019-04-01T10:18:05.624Z,102604.03
2019-04-01T10:20:34.058Z,102610.81
2019-04-01T10:23:02.480Z,102599.20
2019-04-01T10:25:30.933Z,102588.70
2019-04-01T10:27:59.366Z,102600.41
2019-04-01T10:30:27.797Z,102598.73
2019-04-01T10:32:56.237Z,102594.60
2019-04-01T10:35:24.647Z,102587.38
2019-04-01T10:37:53.151Z,102579.50
2019-04-01T10:40:21.705Z,102577.53
2019-04-01T10:42:50.128Z,102575.28
2019-04-01T10:45:18.695Z,102577.34
2019-04-01T10:47:47.143Z,102566.85
2019-04-01T10:50:15.787Z,102574.45
2019-04-01T10:52:44.520Z,102564.38
2019-04-01T10:55:13.406Z,102566.92
2019-04-01T10:57:43.594Z,102562.19
2019-04-01T11:00:12.783Z,102557.41
2019-04-01T11:02:41.253Z,102554.00
2019-04-01T11:05:09.849Z,102547.91
2019-04-01T11:07:38.380Z,102546.84
2019-04-01T11:10:11.440Z,102552.66
2019-04-01T11:12:39.044Z,102553.37
2019-04-01T11:15:07.895Z,102556.55
2019-04-01T11:17:36.319Z,102549.44
2019-04-01T11:20:06.221Z,102543.56
2019-04-01T11:22:34.710Z,102545.13
2019-04-01T11:25:03.976Z,102542.30
2019-04-01T11:27:32.421Z,102541.89
2019-04-01T11:30:00.889Z,102540.59
2019-04-01T11:32:29.313Z,102535.08
2019-04-01T11:34:57.805Z,102529.73
2019-04-01T11:37:26.219Z,102526.48
2019-04-01T11:39:54.753Z,102512.50
2019-04-01T11:42:23.455Z,102517.89
2019-04-01T11:44:52.724Z,102504.59
2019-04-01T11:47:22.273Z,102505.66
2019-04-01T11:49:51.170Z,102497.39
2019-04-01T11:52:19.687Z,102494.45
2019-04-01T11:54:48.123Z,102485.22
2019-04-01T11:57:16.553Z,102482.45
2019-04-01T11:59:45.035Z,102481.55
2019-04-01T12:02:13.491Z,102479.25
2019-04-01T12:04:41.906Z,102470.31
2019-04-01T12:07:10.370Z,102460.66
2019-04-01T12:09:38.839Z,102457.46
2019-04-01T12:12:22.382Z,102454.13
2019-04-01T12:14:37.429Z,102449.65
2019-04-01T12:17:05.856Z,102445.12
2019-04-01T12:19:34.284Z,102447.97
2019-04-01T12:22:02.708Z,102451.25
2019-04-01T12:24:31.221Z,102431.24
2019-04-01T12:26:59.664Z,102436.14
2019-04-01T12:29:28.083Z,102422.94
2019-04-01T12:31:59.482Z,102415.80
2019-04-01T12:34:26.668Z,102366.24
2019-04-01T12:36:55.100Z,102423.94
2019-04-01T12:39:23.530Z,102416.78
2019-04-01T12:41:51.960Z,102404.22
2019-04-01T12:44:20.467Z,102391.63
2019-04-01T12:46:48.924Z,102389.38
2019-04-01T12:49:17.345Z,102386.48
2019-04-01T12:51:45.862Z,102395.86
2019-04-01T12:54:15.291Z,102389.52
2019-04-01T12:56:43.706Z,102375.61
2019-04-01T12:59:12.157Z,102375.05
2019-04-01T13:01:40.589Z,102363.22
2019-04-01T13:04:09.443Z,102359.30
2019-04-01T13:06:37.845Z,102350.42
2019-04-01T13:09:07.844Z,102347.18
2019-04-01T13:11:36.769Z,102341.08
2019-04-01T13:14:05.787Z,102341.70
2019-04-01T13:16:34.217Z,102341.36
2019-04-01T13:19:02.683Z,102351.20
2019-04-01T13:21:34.429Z,102316.10
2019-04-01T13:24:01.416Z,102314.09
2019-04-01T13:26:30.290Z,102316.20
2019-04-01T13:28:59.480Z,102320.09
2019-04-01T13:31:27.919Z,102314.75
2019-04-01T13:33:56.363Z,102276.70
2019-04-01T13:36:24.786Z,102297.53
2019-04-01T13:38:53.204Z,102285.53
2019-04-01T13:41:24.954Z,102283.58
2019-04-01T13:43:51.046Z,102278.53
2019-04-01T13:46:19.535Z,102271.20
2019-04-01T13:48:57.729Z,102266.11
2019-04-01T13:51:18.099Z,102271.88
2019-04-01T13:53:46.615Z,102263.86
2019-04-01T13:56:15.003Z,102257.72
2019-04-01T13:58:43.414Z,102244.86
2019-04-01T14:01:12.041Z,102240.86
2019-04-01T14:03:40.474Z,102242.75
2019-04-01T14:06:08.899Z,102237.94
2019-04-01T14:08:37.349Z,102238.44
2019-04-01T14:11:06.621Z,102230.06
2019-04-01T14:13:35.046Z,102223.16
2019-04-01T14:16:03.521Z,102222.06
2019-04-01T14:18:31.892Z,102224.98
2019-04-01T14:21:14.870Z,102203.92
2019-04-01T14:23:30.497Z,102212.94
2019-04-01T14:25:58.962Z,102211.06
2019-04-01T14:28:27.436Z,102193.11
2019-04-01T14:30:55.848Z,102180.44
2019-04-01T14:33:24.270Z,102165.94
2019-04-01T14:35:52.719Z,102194.72
2019-04-01T14:38:21.168Z,102188.78
2019-04-01T14:40:49.601Z,102177.97
2019-04-01T14:43:18.044Z,102167.62
2019-04-01T14:45:46.450Z,102166.50
2019-04-01T14:48:14.883Z,102154.75
2019-04-01T14:50:43.344Z,102152.89
2019-04-01T14:53:11.756Z,102145.98
2019-04-01T14:55:40.188Z,102143.06
2019-04-01T14:58:08.797Z,102138.52
2019-04-01T15:00:37.229Z,102127.88
2019-04-01T15:03:05.719Z,102120.44
2019-04-01T15:05:34.151Z,102129.66
2019-04-01T15:08:02.641Z,102125.91
2019-04-01T15:10:31.071Z,102119.47
2019-04-01T15:13:05.738Z,102122.09
2019-04-01T15:15:29.659Z,102103.54
2019-04-01T15:17:58.115Z,102112.17
2019-04-01T15:20:26.618Z,102105.03
2019-04-01T15:22:55.023Z,102110.77
2019-04-01T15:25:23.511Z,102102.22
2019-04-01T15:27:51.933Z,102099.44
2019-04-01T15:30:20.358Z,102083.48
2019-04-01T15:32:48.785Z,102082.24
2019-04-01T15:35:17.219Z,102075.39
2019-04-01T15:37:45.640Z,102073.65
2019-04-01T15:40:14.295Z,102076.34
2019-04-01T15:42:43.223Z,102071.45
2019-04-01T15:45:12.146Z,102063.35
2019-04-01T15:47:40.561Z,102044.85
2019-04-01T15:50:09.528Z,102057.06
2019-04-01T15:52:38.363Z,102055.76
2019-04-01T15:55:07.471Z,102054.76
2019-04-01T15:57:35.895Z,102049.98
2019-04-01T16:00:05.984Z,102042.61
2019-04-01T16:02:34.392Z,102047.31
2019-04-01T16:05:02.836Z,102038.72
2019-04-01T16:07:31.250Z,102030.23
2019-04-01T16:09:59.681Z,102026.19
2019-04-01T16:12:28.148Z,102025.20
2019-04-01T16:14:56.582Z,102022.86
2019-04-01T16:17:25.000Z,102020.62
2019-04-01T16:19:53.449Z,102020.33
2019-04-01T16:22:22.076Z,102011.94
2019-04-01T16:24:50.966Z,102001.05
2019-04-01T16:27:19.463Z,101999.00
2019-04-01T16:29:47.897Z,101996.50
2019-04-01T16:32:16.313Z,101990.47
2019-04-01T16:34:44.763Z,101991.45
2019-04-01T16:37:13.182Z,101995.84
2019-04-01T16:39:41.608Z,101986.73
2019-04-01T16:42:10.053Z,101989.66
2019-04-01T16:44:38.477Z,101986.26
2019-04-01T16:47:06.917Z,101994.23
2019-04-01T16:49:36.245Z,101987.17
2019-04-01T16:52:04.813Z,101985.80
2019-04-01T16:54:33.238Z,101983.40
2019-04-01T16:57:01.688Z,101962.45
2019-04-01T16:59:30.128Z,101978.50
2019-04-01T17:01:58.556Z,101979.34
2019-04-01T17:04:26.992Z,101969.16
2019-04-01T17:06:55.447Z,101978.86
2019-04-01T17:09:23.864Z,101976.37
2019-04-01T17:11:54.331Z,101977.50
2019-04-01T17:14:24.266Z,101972.57
2019-04-01T17:16:52.780Z,101970.25
2019-04-01T17:19:21.230Z,101975.62
2019-04-01T17:21:49.654Z,101972.08
2019-04-01T17:24:18.069Z,101972.64
2019-04-01T17:27:10.888Z,101967.03
2019-04-01T17:29:40.956Z,101968.18
2019-04-01T17:32:09.453Z,101965.63
2019-04-01T17:34:37.900Z,101952.98
2019-04-01T17:37:06.323Z,101959.85
2019-04-01T17:39:34.790Z,101951.62
2019-04-01T17:42:03.371Z,101962.96
2019-04-01T17:44:31.798Z,101959.22
2019-04-01T17:47:01.264Z,101964.80
2019-04-01T17:49:30.237Z,101955.33
2019-04-01T17:51:59.475Z,101961.16
2019-04-01T17:54:27.991Z,101957.61
2019-04-01T17:56:56.422Z,101953.38
2019-04-01T17:59:24.866Z,101952.37
2019-04-01T18:01:56.797Z,101951.48
2019-04-01T18:04:23.439Z,101958.03
2019-04-01T18:06:51.982Z,101949.63
2019-04-01T18:09:20.408Z,101946.20
2019-04-01T18:11:48.828Z,101950.43
2019-04-01T18:14:19.074Z,101952.44
2019-04-01T18:16:47.411Z,101946.95
2019-04-01T18:19:15.842Z,101954.70
2019-04-01T18:21:44.256Z,101949.58
2019-04-01T18:24:12.690Z,101944.05
2019-04-01T18:26:41.120Z,101948.05
2019-04-01T18:29:10.023Z,101948.33
2019-04-01T18:31:38.759Z,101954.14
2019-04-01T18:34:07.182Z,101950.91
2019-04-01T18:36:35.633Z,101949.88
2019-04-01T18:39:06.086Z,101944.98
2019-04-01T18:41:34.512Z,101947.36
2019-04-01T18:44:02.930Z,101954.35
2019-04-01T18:46:31.370Z,101948.75
2019-04-01T18:48:59.786Z,101953.71
2019-04-01T18:51:28.193Z,101955.02
2019-04-01T18:53:56.617Z,101960.67
2019-04-01T18:56:25.045Z,101958.59
2019-04-01T18:58:54.081Z,101960.71
2019-04-01T19:01:22.950Z,101956.59
2019-04-01T19:03:51.379Z,101957.75
2019-04-01T19:06:19.809Z,101952.63
2019-04-01T19:08:48.235Z,101960.25
2019-04-01T19:11:16.657Z,101954.75
2019-04-01T19:13:45.079Z,101955.85
2019-04-01T19:16:16.567Z,101947.05
2019-04-01T19:18:43.723Z,101950.88
2019-04-01T19:21:12.161Z,101941.63
2019-04-01T19:23:40.596Z,101946.13
2019-04-01T19:26:10.296Z,101951.05
2019-04-01T19:28:39.002Z,101952.68
2019-04-01T19:31:07.425Z,101939.77
2019-04-01T19:33:35.864Z,101934.98
2019-04-01T19:36:04.273Z,101939.28
2019-04-01T19:38:32.706Z,101936.20
2019-04-01T19:41:01.120Z,101939.06
2019-04-01T19:43:29.569Z,101932.23
2019-04-01T19:45:58.016Z,101927.11
2019-04-01T19:48:26.436Z,101934.23
2019-04-01T19:50:54.857Z,101927.72
2019-04-01T19:53:24.282Z,101925.45
2019-04-01T19:55:53.077Z,101929.83
2019-04-01T19:58:21.505Z,101927.73
2019-04-01T20:00:49.927Z,101920.81
2019-04-01T20:03:18.339Z,101923.30
2019-04-01T20:05:46.768Z,101916.06
2019-04-01T20:08:16.232Z,101919.44
2019-04-01T20:10:46.025Z,101918.45
2019-04-01T20:13:14.715Z,101912.41
2019-04-01T20:15:43.154Z,101916.22
2019-04-01T20:18:11.592Z,101908.63
2019-04-01T20:20:41.658Z,101904.27
2019-04-01T20:23:10.195Z,101895.91
2019-04-01T20:25:38.631Z,101885.98
2019-04-01T20:28:07.074Z,101886.45
2019-04-01T20:30:35.490Z,101880.95
2019-04-01T20:33:16.522Z,101885.04
2019-04-01T20:35:34.623Z,101884.56
2019-04-01T20:38:03.101Z,101890.05
2019-04-01T20:40:31.542Z,101880.94
2019-04-01T20:42:59.953Z,101878.50
2019-04-01T20:45:28.365Z,101873.19
2019-04-01T20:47:56.792Z,101872.53
2019-04-01T20:50:25.275Z,101870.44
2019-04-01T20:52:53.830Z,101866.17
2019-04-01T20:55:22.254Z,101864.56
2019-04-01T20:57:50.686Z,101857.86
2019-04-01T21:00:19.914Z,101856.35
2019-04-01T21:02:48.332Z,101849.52
2019-04-01T21:05:16.862Z,101850.19
2019-04-01T21:07:47.079Z,101841.36
2019-04-01T21:10:15.882Z,101840.73
2019-04-01T21:12:44.305Z,101847.48
2019-04-01T21:15:12.857Z,101833.63
2019-04-01T21:17:41.285Z,101832.12
2019-04-01T21:20:10.135Z,101822.66
2019-04-01T21:22:38.584Z,101822.47
2019-04-01T21:25:07.640Z,101826.08
2019-04-01T21:27:36.078Z,101824.28
2019-04-01T21:30:09.665Z,101821.38
2019-04-01T21:32:38.081Z,101820.43
2019-04-01T21:35:06.662Z,101818.81
2019-04-01T21:37:35.285Z,101818.91
2019-04-01T21:40:06.855Z,101817.20
2019-04-01T21:42:35.296Z,101808.00
2019-04-01T21:45:06.539Z,101800.64
2019-04-01T21:47:35.032Z,101799.87
2019-04-01T21:50:06.209Z,101798.08
2019-04-01T21:52:34.523Z,101795.61
2019-04-01T21:55:02.956Z,101789.25
2019-04-01T21:57:31.389Z,101780.05
2019-04-01T21:59:59.836Z,101777.30
2019-04-01T22:02:35.717Z,101782.23
2019-04-01T22:04:58.411Z,101763.33
2019-04-01T22:07:26.831Z,101773.38
2019-04-01T22:09:55.279Z,101778.31
2019-04-01T22:12:23.705Z,101768.07
2019-04-01T22:14:52.151Z,101764.09
2019-04-01T22:17:20.596Z,101758.30
2019-04-01T22:19:49.013Z,101743.97
2019-04-01T22:22:17.435Z,101749.09
2019-04-01T22:24:45.858Z,101745.68
2019-04-01T22:27:14.307Z,101744.53
2019-04-01T22:29:42.738Z,101736.84
2019-04-01T22:32:11.154Z,101725.61
2019-04-01T22:34:39.670Z,101728.45
2019-04-01T22:37:08.302Z,101731.20
2019-04-01T22:39:36.988Z,101727.50
2019-04-01T22:42:05.450Z,101729.97
2019-04-01T22:44:33.833Z,101729.30
2019-04-01T22:47:02.258Z,101724.83
2019-04-01T22:49:30.686Z,101711.22
2019-04-01T22:51:59.130Z,101709.41
2019-04-01T22:54:27.557Z,101709.03
2019-04-01T22:56:56.262Z,101714.15
2019-04-01T22:59:24.669Z,101708.73
2019-04-01T23:01:53.114Z,101714.25
2019-04-01T23:04:21.531Z,101706.75
2019-04-01T23:06:49.951Z,101698.58
2019-04-01T23:09:18.383Z,101698.20
2019-04-01T23:11:46.807Z,101694.13
2019-04-01T23:14:15.231Z,101696.50
2019-04-01T23:16:43.667Z,101697.25
2019-04-01T23:19:12.088Z,101689.76
2019-04-01T23:21:40.500Z,101686.91
2019-04-01T23:24:08.949Z,101685.67
2019-04-01T23:26:37.365Z,101681.78
2019-04-01T23:29:05.790Z,101674.19
2019-04-01T23:31:34.276Z,101682.94
2019-04-01T23:34:02.689Z,101676.30
2019-04-01T23:36:31.098Z,101670.46
2019-04-01T23:38:59.529Z,101671.89
2019-04-01T23:41:28.012Z,101668.68
2019-04-01T23:43:56.443Z,101665.22
2019-04-01T23:46:24.888Z,101657.63
2019-04-01T23:48:53.308Z,101655.66
2019-04-01T23:51:21.726Z,101649.89
2019-04-01T23:53:50.168Z,101645.15
2019-04-01T23:56:18.583Z,101642.12
2019-04-01T23:58:47.000Z,101633.20
